Time;durP1;ratioP1;P1;durP2;ratioP2;P2;SDS_P1;SDS_P2;PMS_P1;PMS_P2;Temp;Humidity;BMP_temperature;BMP_pressure;BME280_temperature;BME280_humidity;BME280_pressure;Samples;Min_cycle;Max_cycle;Signal;HPM_P1;HPM_P2
2023/03/15 00:17:57;;;;;;;1.23;0.38;;;;;;;;;;6104179;22;1468520;-76
2023/03/15 01:06:29;;;;;;;0.90;0.70;;;;;;;;;;5012645;27;20465;-73
2023/03/15 01:09:01;;;;;;;3.60;1.13;;;;;;;;;;4922701;28;20059;-75
2023/03/15 01:11:28;;;;;;;1.98;1.42;;;;;;;;;;4938090;28;21149;-72
2023/03/15 01:13:56;;;;;;;0.85;0.75;;;;;;;;;;4995487;28;20080;-73
2023/03/15 01:16:22;;;;;;;3.35;0.80;;;;;;;;;;4974563;28;20120;-69
2023/03/15 01:18:50;;;;;;;1.88;1.00;;;;;;;;;;4966295;28;20122;-69
2023/03/15 01:21:20;;;;;;;2.83;1.00;;;;;;;;;;4976062;28;20534;-69
2023/03/15 01:23:48;;;;;;;2.30;1.02;;;;;;;;;;4988288;28;20065;-69
2023/03/15 01:26:15;;;;;;;1.10;0.82;;;;;;;;;;5023317;28;20129;-69
2023/03/15 01:28:42;;;;;;;1.65;1.00;;;;;;;;;;5020583;28;20053;-71
2023/03/15 01:31:10;;;;;;;1.95;0.80;;;;;;;;;;5003757;28;20055;-69
2023/03/15 01:33:37;;;;;;;1.27;0.80;;;;;;;;;;4989366;28;20140;-69
2023/03/15 01:36:06;;;;;;;2.13;0.93;;;;;;;;;;5037776;28;20041;-67
2023/03/15 01:38:34;;;;;;;2.50;1.40;;;;;;;;;;5004527;28;20101;-67
2023/03/15 01:41:02;;;;;;;2.05;1.00;;;;;;;;;;5035726;28;20064;-67
2023/03/15 01:43:31;;;;;;;1.80;0.82;;;;;;;;;;4990524;28;20130;-71
2023/03/15 01:46:18;;;;;;;1.35;0.80;;;;;;;;;;5013935;28;20061;-67
2023/03/15 01:48:47;;;;;;;0.90;0.70;;;;;;;;;;4992307;28;20080;-68
2023/03/15 01:51:16;;;;;;;1.15;0.80;;;;;;;;;;4999088;28;20053;-68
2023/03/15 01:53:46;;;;;;;0.98;0.80;;;;;;;;;;5009790;28;20077;-70
2023/03/15 01:56:14;;;;;;;1.45;0.80;;;;;;;;;;5001066;28;20046;-72
2023/03/15 01:58:42;;;;;;;2.33;1.13;;;;;;;;;;5016777;28;20061;-71
2023/03/15 02:01:10;;;;;;;1.30;0.80;;;;;;;;;;4965409;28;20197;-71
2023/03/15 02:03:45;;;;;;;1.38;0.70;;;;;;;;;;5028407;28;20097;-70
2023/03/15 02:06:16;;;;;;;1.80;0.80;;;;;;;;;;5011499;28;20464;-72
2023/03/15 02:08:45;;;;;;;3.00;0.93;;;;;;;;;;5015570;28;20553;-71
2023/03/15 02:11:13;;;;;;;1.08;0.70;;;;;;;;;;5003012;28;20089;-70
2023/03/15 02:13:41;;;;;;;1.60;1.02;;;;;;;;;;5022979;28;20053;-67
2023/03/15 02:16:09;;;;;;;1.38;0.88;;;;;;;;;;5021531;28;20137;-67
2023/03/15 02:18:38;;;;;;;1.60;0.77;;;;;;;;;;5021005;28;20054;-68
2023/03/15 02:21:06;;;;;;;;;;;;;;;;;;4993800;28;20236;-70
2023/03/15 02:23:38;;;;;;;0.80;0.70;;;;;;;;;;5004940;28;20368;-70
2023/03/15 02:26:11;;;;;;;2.78;0.88;;;;;;;;;;5013021;28;20136;-66
2023/03/15 02:28:39;;;;;;;1.55;0.82;;;;;;;;;;5001637;28;20069;-68
2023/03/15 02:31:08;;;;;;;1.20;0.88;;;;;;;;;;4972033;28;20045;-68
2023/03/15 02:33:38;;;;;;;0.77;0.70;;;;;;;;;;5014833;28;20163;-70
2023/03/15 02:36:10;;;;;;;3.08;1.00;;;;;;;;;;4996536;28;20042;-70
2023/03/15 02:38:38;;;;;;;2.15;0.90;;;;;;;;;;4948361;28;20078;-72
2023/03/15 02:41:11;;;;;;;1.70;0.95;;;;;;;;;;4911359;28;20046;-70
2023/03/15 02:43:39;;;;;;;1.80;1.10;;;;;;;;;;4957846;28;20068;-66
2023/03/15 02:46:06;;;;;;;1.30;0.90;;;;;;;;;;4963085;28;20089;-72
2023/03/15 02:48:34;;;;;;;1.90;1.00;;;;;;;;;;5002259;28;20054;-74
2023/03/15 02:51:02;;;;;;;1.33;0.80;;;;;;;;;;4982855;28;20093;-72
2023/03/15 02:53:29;;;;;;;1.02;0.80;;;;;;;;;;4995702;28;20058;-68
2023/03/15 02:55:57;;;;;;;1.40;0.90;;;;;;;;;;4987983;28;20049;-68
2023/03/15 02:58:24;;;;;;;2.20;1.10;;;;;;;;;;5025083;28;20124;-72
2023/03/15 03:00:54;;;;;;;2.13;1.00;;;;;;;;;;4987051;28;20045;-68
2023/03/15 03:03:21;;;;;;;1.50;0.93;;;;;;;;;;4972204;28;20089;-67
2023/03/15 03:05:48;;;;;;;1.15;0.98;;;;;;;;;;4942607;28;20088;-70
2023/03/15 03:08:15;;;;;;;2.55;1.10;;;;;;;;;;4991557;28;20081;-70
2023/03/15 03:10:41;;;;;;;3.85;1.20;;;;;;;;;;4985550;28;20045;-71
2023/03/15 03:13:08;;;;;;;2.05;1.20;;;;;;;;;;4999985;28;20058;-71
2023/03/15 03:15:34;;;;;;;3.08;1.13;;;;;;;;;;5012139;28;20123;-67
2023/03/15 03:18:02;;;;;;;1.42;1.10;;;;;;;;;;4975724;28;20054;-71
2023/03/15 03:20:29;;;;;;;2.47;1.15;;;;;;;;;;4992970;28;20049;-71
2023/03/15 03:22:56;;;;;;;2.28;1.05;;;;;;;;;;4999498;28;20144;-67
2023/03/15 03:25:25;;;;;;;2.72;1.20;;;;;;;;;;4990089;28;20077;-74
2023/03/15 03:27:55;;;;;;;2.25;1.30;;;;;;;;;;4987134;28;20064;-70
2023/03/15 03:30:22;;;;;;;2.55;1.10;;;;;;;;;;4981835;28;20074;-70
2023/03/15 03:32:49;;;;;;;1.65;1.00;;;;;;;;;;4993846;28;20161;-67
2023/03/15 03:35:18;;;;;;;2.60;1.40;;;;;;;;;;4984797;28;20053;-66
2023/03/15 03:37:45;;;;;;;2.00;1.10;;;;;;;;;;4989307;28;20089;-69
2023/03/15 03:40:12;;;;;;;2.58;1.30;;;;;;;;;;4982449;28;20265;-68
2023/03/15 03:42:38;;;;;;;1.63;1.02;;;;;;;;;;4997606;28;20134;-73
2023/03/15 03:45:05;;;;;;;2.20;1.10;;;;;;;;;;4978123;28;20065;-70
2023/03/15 03:47:32;;;;;;;2.08;1.33;;;;;;;;;;4943352;28;20186;-67
2023/03/15 03:50:00;;;;;;;2.13;1.30;;;;;;;;;;4972722;28;20053;-66
2023/03/15 03:52:29;;;;;;;2.78;1.40;;;;;;;;;;4988359;28;20322;-67
2023/03/15 03:54:56;;;;;;;3.13;1.60;;;;;;;;;;4966956;28;20140;-71
2023/03/15 03:57:22;;;;;;;2.45;1.30;;;;;;;;;;5001761;28;20061;-72
2023/03/15 03:59:48;;;;;;;2.38;1.42;;;;;;;;;;4987513;28;20072;-66
2023/03/15 04:02:15;;;;;;;2.28;1.30;;;;;;;;;;4990790;28;20064;-72
2023/03/15 04:04:41;;;;;;;2.60;1.33;;;;;;;;;;4983923;28;20054;-70
2023/03/15 04:07:08;;;;;;;2.97;1.50;;;;;;;;;;4989576;28;20056;-68
2023/03/15 04:09:36;;;;;;;2.80;1.48;;;;;;;;;;4998229;28;20062;-70
2023/03/15 04:12:04;;;;;;;3.38;1.40;;;;;;;;;;4992095;28;20080;-67
2023/03/15 04:14:31;;;;;;;3.15;1.35;;;;;;;;;;4972359;28;20057;-70
2023/03/15 04:16:58;;;;;;;3.07;1.53;;;;;;;;;;5003777;28;20061;-70
2023/03/15 04:19:24;;;;;;;3.85;1.45;;;;;;;;;;4992065;28;20126;-67
2023/03/15 04:21:53;;;;;;;3.50;1.48;;;;;;;;;;4994535;28;20080;-71
2023/03/15 04:24:19;;;;;;;2.53;1.38;;;;;;;;;;4980015;28;20061;-68
2023/03/15 04:26:47;;;;;;;2.97;1.65;;;;;;;;;;4993389;28;20591;-71
2023/03/15 04:29:14;;;;;;;4.03;1.23;;;;;;;;;;5011836;28;20169;-68
2023/03/15 04:31:42;;;;;;;4.05;1.25;;;;;;;;;;5007398;28;20070;-67
2023/03/15 04:34:08;;;;;;;3.40;1.80;;;;;;;;;;4992823;28;20065;-72
2023/03/15 04:36:35;;;;;;;2.17;1.40;;;;;;;;;;4987402;28;20049;-67
2023/03/15 04:39:05;;;;;;;2.90;1.60;;;;;;;;;;4993512;28;20052;-70
2023/03/15 04:41:34;;;;;;;5.00;1.52;;;;;;;;;;4994546;28;20061;-69
2023/03/15 04:44:02;;;;;;;2.65;1.58;;;;;;;;;;5001047;28;20134;-70
2023/03/15 04:46:31;;;;;;;2.15;1.50;;;;;;;;;;4994029;28;20064;-67
2023/03/15 04:48:58;;;;;;;2.97;1.40;;;;;;;;;;4998285;28;20052;-71
2023/03/15 04:51:25;;;;;;;3.40;1.80;;;;;;;;;;4991345;28;20144;-67
2023/03/15 04:53:51;;;;;;;3.15;1.70;;;;;;;;;;4977055;28;20049;-65
2023/03/15 04:56:17;;;;;;;2.10;1.38;;;;;;;;;;5010930;28;20136;-65
2023/03/15 04:58:44;;;;;;;3.30;1.65;;;;;;;;;;4997302;28;20107;-65
2023/03/15 05:01:12;;;;;;;3.38;1.40;;;;;;;;;;5007035;28;20080;-70
2023/03/15 05:03:39;;;;;;;3.30;1.63;;;;;;;;;;5010091;28;20119;-69
2023/03/15 05:06:06;;;;;;;4.05;1.90;;;;;;;;;;4984479;28;20151;-68
2023/03/15 05:08:34;;;;;;;2.28;1.48;;;;;;;;;;5013143;28;20048;-69
2023/03/15 05:11:00;;;;;;;2.72;1.48;;;;;;;;;;4993516;28;20062;-65
2023/03/15 05:13:27;;;;;;;3.28;1.73;;;;;;;;;;4994266;28;20057;-67
2023/03/15 05:15:53;;;;;;;2.75;1.48;;;;;;;;;;5003281;28;20053;-72
2023/03/15 05:18:22;;;;;;;3.28;1.75;;;;;;;;;;4984764;28;20064;-68
2023/03/15 05:20:48;;;;;;;3.17;1.60;;;;;;;;;;4991045;28;20046;-69
2023/03/15 05:23:15;;;;;;;3.75;1.85;;;;;;;;;;5008152;28;20077;-71
2023/03/15 05:25:42;;;;;;;3.55;1.73;;;;;;;;;;4992750;28;20152;-72
2023/03/15 05:28:08;;;;;;;3.20;1.48;;;;;;;;;;4995631;28;20057;-71
2023/03/15 05:30:37;;;;;;;3.67;1.63;;;;;;;;;;4990459;28;20058;-70
2023/03/15 05:33:04;;;;;;;3.50;1.85;;;;;;;;;;5008065;28;20048;-68
2023/03/15 05:35:34;;;;;;;3.15;1.67;;;;;;;;;;4974130;28;20056;-71
2023/03/15 05:38:02;;;;;;;3.45;1.70;;;;;;;;;;4990896;28;20062;-68
2023/03/15 05:40:29;;;;;;;3.35;1.90;;;;;;;;;;4994333;28;20068;-69
2023/03/15 05:42:55;;;;;;;3.33;1.70;;;;;;;;;;4978156;28;20957;-71
2023/03/15 05:45:22;;;;;;;2.88;1.58;;;;;;;;;;4944422;28;20245;-73
2023/03/15 05:47:48;;;;;;;4.15;1.77;;;;;;;;;;4992930;28;20054;-67
2023/03/15 05:50:15;;;;;;;3.30;1.80;;;;;;;;;;5011401;28;20062;-68
2023/03/15 05:52:43;;;;;;;4.57;1.90;;;;;;;;;;4988202;28;20129;-73
2023/03/15 05:55:09;;;;;;;3.40;1.80;;;;;;;;;;4975114;28;20057;-66
2023/03/15 05:57:36;;;;;;;6.13;2.20;;;;;;;;;;5003122;28;20417;-67
2023/03/15 06:00:03;;;;;;;4.88;2.20;;;;;;;;;;4990167;28;20111;-68
2023/03/15 06:02:34;;;;;;;4.35;2.10;;;;;;;;;;4999241;28;20058;-71
2023/03/15 06:05:00;;;;;;;5.68;1.92;;;;;;;;;;4981353;28;20070;-68
2023/03/15 06:07:27;;;;;;;3.80;1.83;;;;;;;;;;5000676;28;20053;-70
2023/03/15 06:09:55;;;;;;;3.38;1.85;;;;;;;;;;4998154;28;20077;-68
2023/03/15 06:12:21;;;;;;;3.83;2.03;;;;;;;;;;4987641;28;20066;-67
2023/03/15 06:14:48;;;;;;;4.47;1.95;;;;;;;;;;4970832;28;20257;-70
2023/03/15 06:17:14;;;;;;;5.30;2.03;;;;;;;;;;4994646;28;20077;-71
2023/03/15 06:19:41;;;;;;;4.22;2.10;;;;;;;;;;4997802;28;20054;-69
2023/03/15 06:22:10;;;;;;;4.43;2.10;;;;;;;;;;4993079;28;20079;-64
2023/03/15 06:24:38;;;;;;;3.35;1.80;;;;;;;;;;4980837;28;20160;-72
2023/03/15 06:27:06;;;;;;;4.65;1.98;;;;;;;;;;4991771;28;20069;-67
2023/03/15 06:29:33;;;;;;;5.30;2.25;;;;;;;;;;4998609;28;20066;-65
2023/03/15 06:31:59;;;;;;;4.07;2.15;;;;;;;;;;5027608;28;20131;-73
2023/03/15 06:34:29;;;;;;;5.25;2.00;;;;;;;;;;4986495;28;20240;-67
2023/03/15 06:37:00;;;;;;;4.63;2.20;;;;;;;;;;4976850;28;20961;-73
2023/03/15 06:39:27;;;;;;;5.10;1.85;;;;;;;;;;4985343;28;20140;-71
2023/03/15 06:41:57;;;;;;;5.60;2.28;;;;;;;;;;4972103;28;20126;-67
2023/03/15 06:44:28;;;;;;;5.32;2.38;;;;;;;;;;5002593;28;20061;-73
2023/03/15 06:46:56;;;;;;;5.72;2.40;;;;;;;;;;4974308;28;20059;-69
2023/03/15 06:49:23;;;;;;;5.15;2.35;;;;;;;;;;4987552;28;20136;-67
2023/03/15 06:51:49;;;;;;;5.07;2.47;;;;;;;;;;5005494;28;20045;-71
2023/03/15 06:54:16;;;;;;;5.03;2.15;;;;;;;;;;4998273;28;20087;-67
2023/03/15 06:56:42;;;;;;;6.72;2.70;;;;;;;;;;4996174;28;20054;-66
2023/03/15 06:59:09;;;;;;;4.50;2.42;;;;;;;;;;5003819;28;20061;-73
2023/03/15 07:01:40;;;;;;;6.47;2.70;;;;;;;;;;4992057;28;20084;-67
2023/03/15 07:04:11;;;;;;;6.05;2.45;;;;;;;;;;4988322;28;20053;-66
2023/03/15 07:06:37;;;;;;;5.72;2.83;;;;;;;;;;4988229;28;20050;-69
2023/03/15 07:09:06;;;;;;;5.13;2.22;;;;;;;;;;5007065;28;20188;-66
2023/03/15 07:11:35;;;;;;;5.88;2.47;;;;;;;;;;4993253;28;20038;-69
2023/03/15 07:14:04;;;;;;;5.50;2.47;;;;;;;;;;4989097;28;20192;-66
2023/03/15 07:16:31;;;;;;;5.40;2.42;;;;;;;;;;4974202;28;20103;-70
2023/03/15 07:18:59;;;;;;;5.93;2.58;;;;;;;;;;5000406;28;20131;-71
2023/03/15 07:21:25;;;;;;;5.85;2.60;;;;;;;;;;4989202;28;20065;-70
2023/03/15 07:23:52;;;;;;;4.35;2.10;;;;;;;;;;5001758;28;20049;-72
2023/03/15 07:26:18;;;;;;;4.70;2.42;;;;;;;;;;4963406;28;20104;-68
2023/03/15 07:28:45;;;;;;;5.45;2.60;;;;;;;;;;4987570;28;20313;-72
2023/03/15 07:31:12;;;;;;;4.97;2.15;;;;;;;;;;4998064;28;20223;-65
2023/03/15 07:33:38;;;;;;;5.88;2.45;;;;;;;;;;4991593;28;20203;-69
2023/03/15 07:36:07;;;;;;;7.35;2.33;;;;;;;;;;4993430;28;20061;-72
2023/03/15 07:38:33;;;;;;;;;;;;;;;;;;4977292;28;20045;-68
2023/03/15 07:41:01;;;;;;;5.93;2.13;;;;;;;;;;4994202;28;19972;-66
2023/03/15 07:43:28;;;;;;;4.67;2.10;;;;;;;;;;4994686;28;20347;-66
2023/03/15 07:45:57;;;;;;;5.30;2.50;;;;;;;;;;5004300;28;20048;-66
2023/03/15 07:48:23;;;;;;;6.78;2.40;;;;;;;;;;5000743;28;20663;-69
2023/03/15 07:50:50;;;;;;;5.13;2.25;;;;;;;;;;4985631;28;20449;-67
2023/03/15 07:53:18;;;;;;;5.95;2.35;;;;;;;;;;5003542;28;20081;-69
2023/03/15 07:55:49;;;;;;;5.77;2.10;;;;;;;;;;4977509;28;20077;-70
2023/03/15 07:58:16;;;;;;;6.50;2.55;;;;;;;;;;4994847;28;20311;-70
2023/03/15 08:00:44;;;;;;;5.32;2.50;;;;;;;;;;5006153;28;20085;-69
2023/03/15 08:03:12;;;;;;;8.25;2.38;;;;;;;;;;4986532;28;20041;-72
2023/03/15 08:05:42;;;;;;;7.57;2.60;;;;;;;;;;4961368;28;20054;-66
2023/03/15 08:08:08;;;;;;;5.32;2.20;;;;;;;;;;5015527;28;20049;-70
2023/03/15 08:10:36;;;;;;;6.47;3.08;;;;;;;;;;4975996;28;20259;-69
2023/03/15 08:13:02;;;;;;;4.97;2.47;;;;;;;;;;4996573;28;20065;-69
2023/03/15 08:15:29;;;;;;;6.53;2.72;;;;;;;;;;4975154;28;20046;-69
2023/03/15 08:17:56;;;;;;;6.57;2.03;;;;;;;;;;4990620;28;20179;-73
2023/03/15 08:20:40;;;;;;;5.85;2.60;;;;;;;;;;4988776;28;20064;-69
2023/03/15 08:23:08;;;;;;;5.40;2.28;;;;;;;;;;5009359;28;20141;-70
2023/03/15 08:25:39;;;;;;;5.30;2.30;;;;;;;;;;4988141;28;20077;-66
2023/03/15 08:30:52;;;;;;;5.32;1.95;;;;;;;;;;4979859;28;20052;-74
2023/03/15 08:33:18;;;;;;;3.83;1.70;;;;;;;;;;4995695;28;20066;-65
2023/03/15 08:35:51;;;;;;;5.90;2.15;;;;;;;;;;5008982;28;20069;-68
2023/03/15 08:38:17;;;;;;;6.80;2.25;;;;;;;;;;4986603;28;20093;-69
2023/03/15 08:40:46;;;;;;;3.70;1.58;;;;;;;;;;4964174;28;20062;-69
2023/03/15 08:43:13;;;;;;;4.47;1.98;;;;;;;;;;4977870;28;20092;-66
2023/03/15 08:45:39;;;;;;;8.15;2.13;;;;;;;;;;4983843;28;20108;-67
2023/03/15 08:48:06;;;;;;;5.53;2.35;;;;;;;;;;4987820;28;20112;-68
2023/03/15 08:50:32;;;;;;;3.70;1.83;;;;;;;;;;4968507;28;20092;-73
2023/03/15 08:52:59;;;;;;;5.45;2.05;;;;;;;;;;4963674;28;20124;-67
2023/03/15 08:55:26;;;;;;;7.47;2.50;;;;;;;;;;4962555;28;20046;-71
2023/03/15 08:57:56;;;;;;;5.30;2.15;;;;;;;;;;5009217;28;20068;-68
2023/03/15 09:00:26;;;;;;;4.70;1.98;;;;;;;;;;4982399;28;20560;-71
2023/03/15 09:02:57;;;;;;;5.13;1.88;;;;;;;;;;4972990;28;20065;-66
2023/03/15 09:05:24;;;;;;;;;;;;;;;;;;4994827;28;20116;-69
2023/03/15 09:07:51;;;;;;;3.35;1.45;;;;;;;;;;4986959;28;19932;-67
2023/03/15 09:10:18;;;;;;;3.95;1.88;;;;;;;;;;4994751;28;20138;-69
2023/03/15 09:12:47;;;;;;;4.45;1.70;;;;;;;;;;4983346;28;20176;-67
2023/03/15 09:15:15;;;;;;;3.08;1.55;;;;;;;;;;4980236;28;20058;-67
2023/03/15 09:17:42;;;;;;;;;;;;;;;;;;4990834;28;20062;-67
2023/03/15 09:20:13;;;;;;;3.92;1.40;;;;;;;;;;4984487;28;19928;-69
2023/03/15 09:22:39;;;;;;;4.25;2.05;;;;;;;;;;4983126;28;20377;-67
2023/03/15 09:25:08;;;;;;;2.63;1.48;;;;;;;;;;5005966;28;20108;-68
2023/03/15 09:27:35;;;;;;;3.78;1.42;;;;;;;;;;4991104;28;20060;-67
2023/03/15 09:30:06;;;;;;;4.38;1.63;;;;;;;;;;5012906;28;20080;-66
2023/03/15 09:32:35;;;;;;;3.03;1.35;;;;;;;;;;4976001;28;20057;-68
2023/03/15 09:35:03;;;;;;;4.88;1.77;;;;;;;;;;4971797;28;20847;-67
2023/03/15 09:37:29;;;;;;;4.85;1.42;;;;;;;;;;4994157;28;20140;-71
2023/03/15 09:40:03;;;;;;;5.68;1.40;;;;;;;;;;4979068;28;20062;-67
2023/03/15 09:42:35;;;;;;;5.50;1.60;;;;;;;;;;4950678;28;20136;-65
2023/03/15 09:45:08;;;;;;;2.92;1.42;;;;;;;;;;4971644;28;20057;-69
2023/03/15 09:47:39;;;;;;;2.95;1.25;;;;;;;;;;4972242;28;20041;-70
2023/03/15 09:50:14;;;;;;;5.22;1.45;;;;;;;;;;4989684;28;20073;-66
2023/03/15 09:52:42;;;;;;;3.22;1.38;;;;;;;;;;4986471;28;20168;-70
2023/03/15 09:55:13;;;;;;;3.33;1.20;;;;;;;;;;4959240;28;20073;-66
2023/03/15 09:57:41;;;;;;;1.95;1.10;;;;;;;;;;4985251;28;20077;-70
2023/03/15 10:00:12;;;;;;;2.50;1.08;;;;;;;;;;4977490;28;20054;-70
2023/03/15 10:02:43;;;;;;;2.72;1.10;;;;;;;;;;4972419;28;20057;-70
2023/03/15 10:05:12;;;;;;;4.18;1.33;;;;;;;;;;4940154;28;20080;-70
2023/03/15 10:07:38;;;;;;;;;;;;;;;;;;4996375;28;20128;-66
2023/03/15 10:10:08;;;;;;;;;;;;;;;;;;5003708;28;19938;-66
2023/03/15 10:12:40;;;;;;;1.10;0.63;;;;;;;;;;4988299;28;19924;-71
2023/03/15 10:15:21;;;;;;;3.25;1.25;;;;;;;;;;4960666;28;20084;-66
2023/03/15 10:17:58;;;;;;;5.43;1.05;;;;;;;;;;5003748;28;20064;-65
2023/03/15 10:20:26;;;;;;;2.60;1.10;;;;;;;;;;4996707;28;20173;-70
2023/03/15 10:22:56;;;;;;;3.22;1.38;;;;;;;;;;4999357;28;20156;-68
2023/03/15 10:25:25;;;;;;;5.10;1.55;;;;;;;;;;4988487;28;20061;-67
2023/03/15 10:27:54;;;;;;;3.20;1.10;;;;;;;;;;5003345;28;20069;-64
2023/03/15 10:30:26;;;;;;;4.00;1.13;;;;;;;;;;5000551;28;20066;-68
2023/03/15 10:32:56;;;;;;;5.10;1.08;;;;;;;;;;4969727;28;20061;-66
2023/03/15 10:35:22;;;;;;;2.05;0.95;;;;;;;;;;4996401;28;20049;-68
2023/03/15 10:37:50;;;;;;;4.47;1.38;;;;;;;;;;4975071;28;20046;-67
2023/03/15 10:40:37;;;;;;;2.40;1.00;;;;;;;;;;4985396;28;20063;-66
2023/03/15 10:43:12;;;;;;;1.75;0.93;;;;;;;;;;4975808;28;20069;-70
2023/03/15 10:45:38;;;;;;;1.75;0.90;;;;;;;;;;4984753;28;20093;-66
2023/03/15 10:48:07;;;;;;;2.63;1.10;;;;;;;;;;4995171;28;20143;-68
2023/03/15 10:50:34;;;;;;;;;;;;;;;;;;4985349;28;20114;-66
2023/03/15 10:53:06;;;;;;;2.65;1.00;;;;;;;;;;4998102;28;20047;-67
2023/03/15 10:55:34;;;;;;;6.50;1.15;;;;;;;;;;4989264;28;20154;-67
2023/03/15 10:58:12;;;;;;;4.05;1.00;;;;;;;;;;4994993;28;20235;-68
2023/03/15 11:00:38;;;;;;;2.65;1.00;;;;;;;;;;4972070;28;20148;-66
2023/03/15 11:03:06;;;;;;;2.75;1.17;;;;;;;;;;5012330;28;20159;-65
2023/03/15 11:05:38;;;;;;;1.20;0.73;;;;;;;;;;4990391;28;20133;-66
2023/03/15 11:08:10;;;;;;;2.58;0.65;;;;;;;;;;4994744;28;20120;-67
2023/03/15 11:10:37;;;;;;;2.85;0.90;;;;;;;;;;4980587;28;20140;-67
2023/03/15 11:13:11;;;;;;;4.55;1.00;;;;;;;;;;4996634;28;20050;-67
2023/03/15 11:15:38;;;;;;;2.00;0.90;;;;;;;;;;4982382;28;20281;-69
2023/03/15 11:18:04;;;;;;;2.45;0.95;;;;;;;;;;4993152;28;20156;-67
2023/03/15 11:20:36;;;;;;;3.22;0.77;;;;;;;;;;4990896;28;20085;-64
2023/03/15 11:23:07;;;;;;;1.13;0.70;;;;;;;;;;4996325;28;20053;-67
2023/03/15 11:25:33;;;;;;;3.95;1.10;;;;;;;;;;4993152;28;20061;-68
2023/03/15 11:28:00;;;;;;;1.15;0.70;;;;;;;;;;4993372;28;20054;-66
2023/03/15 11:30:30;;;;;;;2.28;0.77;;;;;;;;;;4986442;28;20063;-66
2023/03/15 11:32:58;;;;;;;2.58;0.70;;;;;;;;;;4992472;28;20064;-66
2023/03/15 11:35:32;;;;;;;2.65;0.82;;;;;;;;;;4994459;28;20069;-66
2023/03/15 11:38:02;;;;;;;3.67;1.00;;;;;;;;;;4992518;28;20140;-66
2023/03/15 11:40:32;;;;;;;3.90;0.65;;;;;;;;;;5014790;28;20053;-67
2023/03/15 11:43:01;;;;;;;6.00;1.05;;;;;;;;;;4972900;28;20050;-65
2023/03/15 11:45:30;;;;;;;3.25;0.80;;;;;;;;;;4975406;28;20081;-64
2023/03/15 11:47:58;;;;;;;1.17;0.68;;;;;;;;;;5015817;28;20057;-68
2023/03/15 11:50:30;;;;;;;5.88;1.25;;;;;;;;;;5012056;28;20057;-69
2023/03/15 11:53:02;;;;;;;4.07;0.70;;;;;;;;;;4983439;28;20050;-67
2023/03/15 11:55:33;;;;;;;4.38;0.95;;;;;;;;;;4956816;28;20109;-67
2023/03/15 11:58:21;;;;;;;2.08;0.63;;;;;;;;;;4992212;28;20042;-66
2023/03/15 12:00:49;;;;;;;1.55;0.80;;;;;;;;;;4977487;28;20103;-67
2023/03/15 12:03:40;;;;;;;1.80;0.70;;;;;;;;;;4992960;28;20058;-65
2023/03/15 12:06:27;;;;;;;0.82;0.68;;;;;;;;;;4993463;28;20054;-65
2023/03/15 12:08:56;;;;;;;1.77;0.77;;;;;;;;;;4975040;28;20066;-65
2023/03/15 12:11:40;;;;;;;1.15;0.60;;;;;;;;;;5011017;28;20060;-65
2023/03/15 12:14:21;;;;;;;4.93;1.02;;;;;;;;;;5003385;28;20497;-63
2023/03/15 12:16:48;;;;;;;3.28;0.85;;;;;;;;;;4991611;28;20200;-66
2023/03/15 12:19:21;;;;;;;1.00;0.60;;;;;;;;;;4991907;28;20117;-65
2023/03/15 12:21:50;;;;;;;1.92;0.75;;;;;;;;;;4995198;28;20219;-66
2023/03/15 12:24:21;;;;;;;2.30;0.73;;;;;;;;;;5003644;28;20521;-68
2023/03/15 12:26:58;;;;;;;1.45;0.70;;;;;;;;;;4985959;28;20402;-66
2023/03/15 12:29:26;;;;;;;5.90;0.90;;;;;;;;;;4990979;28;20058;-65
2023/03/15 12:31:54;;;;;;;2.05;0.85;;;;;;;;;;5008422;28;20509;-64
2023/03/15 12:34:21;;;;;;;;;;;;;;;;;;5014941;28;20072;-66
2023/03/15 12:36:48;;;;;;;5.57;0.60;;;;;;;;;;4968606;28;20037;-64
2023/03/15 12:39:21;;;;;;;6.45;1.50;;;;;;;;;;4974764;28;20072;-65
2023/03/15 12:41:49;;;;;;;1.77;0.68;;;;;;;;;;4992415;28;20053;-66
2023/03/15 12:44:23;;;;;;;3.80;0.90;;;;;;;;;;4983045;28;20378;-68
2023/03/15 12:46:54;;;;;;;3.10;0.70;;;;;;;;;;4990192;28;20049;-66
2023/03/15 12:49:29;;;;;;;2.65;0.77;;;;;;;;;;4990877;28;20064;-67
2023/03/15 12:51:56;;;;;;;1.90;0.60;;;;;;;;;;4999326;28;20045;-64
2023/03/15 12:54:27;;;;;;;6.30;0.93;;;;;;;;;;4991967;28;20505;-65
2023/03/15 12:56:54;;;;;;;3.03;0.90;;;;;;;;;;4963582;28;20057;-63
2023/03/15 12:59:28;;;;;;;3.45;0.70;;;;;;;;;;5008407;28;20180;-66
2023/03/15 13:01:55;;;;;;;1.90;0.75;;;;;;;;;;4985907;28;20139;-64
2023/03/15 13:04:21;;;;;;;2.65;0.90;;;;;;;;;;5001027;28;20061;-68
2023/03/15 13:06:56;;;;;;;0.88;0.80;;;;;;;;;;4960808;28;20421;-64
2023/03/15 13:09:33;;;;;;;1.40;0.57;;;;;;;;;;5008063;28;20057;-66
2023/03/15 13:12:01;;;;;;;2.50;0.68;;;;;;;;;;4983816;28;20058;-67
2023/03/15 13:14:37;;;;;;;5.03;0.65;;;;;;;;;;4993535;28;20062;-66
2023/03/15 13:17:07;;;;;;;3.22;0.57;;;;;;;;;;4978440;28;20524;-67
2023/03/15 13:19:36;;;;;;;3.63;0.82;;;;;;;;;;4991668;28;20058;-65
2023/03/15 13:22:09;;;;;;;3.03;0.90;;;;;;;;;;5007328;28;20132;-66
2023/03/15 13:24:41;;;;;;;1.27;0.70;;;;;;;;;;4981220;28;20054;-66
2023/03/15 13:27:11;;;;;;;3.13;0.85;;;;;;;;;;4977685;28;20049;-65
2023/03/15 13:29:39;;;;;;;1.33;0.65;;;;;;;;;;4985096;28;20116;-66
2023/03/15 13:32:11;;;;;;;2.92;0.80;;;;;;;;;;4989802;28;20081;-65
2023/03/15 13:34:40;;;;;;;2.25;0.70;;;;;;;;;;4939906;28;20133;-68
2023/03/15 13:37:16;;;;;;;3.45;0.80;;;;;;;;;;4957967;28;20112;-65
2023/03/15 13:39:53;;;;;;;3.70;1.05;;;;;;;;;;4994808;28;20065;-66
2023/03/15 13:42:22;;;;;;;3.72;0.80;;;;;;;;;;4998572;28;20046;-64
2023/03/15 13:45:12;;;;;;;2.63;0.80;;;;;;;;;;4988698;28;20056;-67
2023/03/15 13:47:41;;;;;;;1.42;0.73;;;;;;;;;;4962841;28;20100;-67
2023/03/15 13:50:08;;;;;;;6.75;0.82;;;;;;;;;;4992445;28;20089;-65
2023/03/15 13:52:36;;;;;;;3.30;0.80;;;;;;;;;;4973727;28;20057;-68
2023/03/15 13:55:04;;;;;;;2.85;0.80;;;;;;;;;;4985106;28;20053;-65
2023/03/15 13:57:30;;;;;;;2.53;0.60;;;;;;;;;;4966889;28;20069;-65
2023/03/15 13:59:59;;;;;;;1.88;0.68;;;;;;;;;;4999320;28;20057;-65
2023/03/15 14:02:28;;;;;;;;;;;;;;;;;;4991934;28;20062;-65
2023/03/15 14:04:58;;;;;;;1.92;0.60;;;;;;;;;;4987470;28;19922;-65
2023/03/15 14:07:27;;;;;;;3.17;0.75;;;;;;;;;;5002740;28;20057;-65
2023/03/15 14:10:10;;;;;;;2.20;0.82;;;;;;;;;;4995709;28;20133;-68
2023/03/15 14:12:37;;;;;;;3.17;0.80;;;;;;;;;;4965546;28;20164;-70
2023/03/15 14:15:03;;;;;;;2.95;0.80;;;;;;;;;;4997549;28;20050;-70
2023/03/15 14:17:30;;;;;;;3.67;0.88;;;;;;;;;;4992048;28;20085;-65
2023/03/15 14:20:07;;;;;;;2.47;0.60;;;;;;;;;;4994575;28;20082;-63
2023/03/15 14:22:34;;;;;;;4.20;0.75;;;;;;;;;;4993955;28;20303;-66
2023/03/15 14:25:03;;;;;;;2.75;0.85;;;;;;;;;;4981588;28;20060;-66
2023/03/15 14:27:31;;;;;;;2.15;0.77;;;;;;;;;;4992254;28;20133;-67
2023/03/15 14:29:58;;;;;;;6.55;0.85;;;;;;;;;;4986902;28;20057;-66
2023/03/15 14:32:27;;;;;;;2.17;0.65;;;;;;;;;;4978063;28;20116;-68
2023/03/15 14:35:02;;;;;;;1.88;0.77;;;;;;;;;;4980058;28;20128;-66
2023/03/15 14:37:32;;;;;;;1.92;0.63;;;;;;;;;;4993790;28;20058;-68
2023/03/15 14:40:07;;;;;;;1.58;0.60;;;;;;;;;;5000969;28;20050;-66
2023/03/15 14:42:34;;;;;;;0.63;0.50;;;;;;;;;;5003556;28;20058;-65
2023/03/15 14:45:00;;;;;;;0.95;0.52;;;;;;;;;;4977272;28;20062;-64
2023/03/15 14:47:27;;;;;;;0.85;0.60;;;;;;;;;;5002629;28;20078;-67
2023/03/15 14:49:53;;;;;;;0.80;0.50;;;;;;;;;;4997078;28;20045;-64
2023/03/15 14:52:23;;;;;;;4.40;0.60;;;;;;;;;;4997442;28;20300;-63
2023/03/15 14:54:50;;;;;;;1.10;0.60;;;;;;;;;;4973005;28;20140;-67
2023/03/15 14:57:19;;;;;;;1.52;0.70;;;;;;;;;;4990885;28;20103;-68
2023/03/15 14:59:49;;;;;;;1.17;0.63;;;;;;;;;;5004981;28;20057;-66
2023/03/15 15:02:23;;;;;;;2.10;0.60;;;;;;;;;;4978974;28;20148;-66
2023/03/15 15:04:50;;;;;;;1.15;0.50;;;;;;;;;;4989961;28;20050;-68
2023/03/15 15:07:19;;;;;;;3.30;0.43;;;;;;;;;;4993874;28;20145;-66
2023/03/15 15:09:49;;;;;;;1.63;0.47;;;;;;;;;;4986608;28;20076;-66
2023/03/15 15:12:17;;;;;;;2.00;0.57;;;;;;;;;;4988818;28;20057;-64
2023/03/15 15:14:43;;;;;;;0.70;0.30;;;;;;;;;;4986474;28;20089;-66
2023/03/15 15:17:10;;;;;;;1.92;0.80;;;;;;;;;;4999878;28;20163;-67
2023/03/15 15:19:36;;;;;;;1.42;0.50;;;;;;;;;;5003020;28;20068;-63
2023/03/15 15:22:06;;;;;;;2.05;0.45;;;;;;;;;;4982378;28;20061;-67
2023/03/15 15:24:32;;;;;;;1.13;0.60;;;;;;;;;;4996730;28;20096;-66
2023/03/15 15:27:02;;;;;;;2.95;0.60;;;;;;;;;;4993853;28;20073;-65
2023/03/15 15:29:30;;;;;;;3.38;0.80;;;;;;;;;;4996205;28;20056;-68
2023/03/15 15:31:56;;;;;;;2.63;0.60;;;;;;;;;;5008324;28;20057;-66
2023/03/15 15:34:23;;;;;;;1.48;0.70;;;;;;;;;;5000769;28;20046;-64
2023/03/15 15:36:51;;;;;;;2.75;0.63;;;;;;;;;;4967308;28;20057;-68
2023/03/15 15:39:20;;;;;;;2.50;0.60;;;;;;;;;;4995359;28;20089;-64
2023/03/15 15:41:50;;;;;;;2.97;0.45;;;;;;;;;;4992691;28;20057;-66
2023/03/15 15:44:21;;;;;;;2.70;0.80;;;;;;;;;;5000822;28;20064;-64
2023/03/15 15:46:47;;;;;;;3.22;0.65;;;;;;;;;;4973918;28;20045;-65
2023/03/15 15:49:15;;;;;;;1.38;0.50;;;;;;;;;;4996225;28;20054;-66
2023/03/15 15:51:45;;;;;;;0.75;0.57;;;;;;;;;;4992334;28;20161;-68
2023/03/15 15:54:13;;;;;;;1.63;0.60;;;;;;;;;;4992572;28;20081;-65
2023/03/15 15:56:45;;;;;;;2.05;0.85;;;;;;;;;;4974965;28;20135;-67
2023/03/15 15:59:13;;;;;;;0.95;0.45;;;;;;;;;;4996480;28;20046;-68
2023/03/15 16:01:41;;;;;;;1.73;0.50;;;;;;;;;;4992241;28;20150;-67